Time,TemperatureF,DewpointF,PressureIn,WindDirection,WindDirectionDegrees,WindSpeedMPH,WindSpeedGustMPH,Humidity,HourlyPrecipIn,Conditions,Clouds,dailyrainin,SoftwareType,DateUTC
2013-10-17 00:01:00,44.8,42.6,30.23,SW,224,5.0,6.0,92,0.00,,,0.00,meteohub,2013-10-17 05:01:00,
2013-10-17 00:06:00,44.4,42.4,30.22,WSW,252,3.0,6.0,93,0.00,,,0.00,meteohub,2013-10-17 05:06:00,
2013-10-17 00:11:00,44.4,42.4,30.23,SW,231,2.0,6.0,93,0.00,,,0.00,meteohub,2013-10-17 05:11:00,
2013-10-17 00:16:00,44.4,42.4,30.23,WSW,255,2.0,5.0,93,0.00,,,0.00,meteohub,2013-10-17 05:16:00,
2013-10-17 00:22:00,44.4,42.4,30.23,SW,217,2.0,5.0,93,0.00,,,0.00,meteohub,2013-10-17 05:22:00,
2013-10-17 00:27:00,44.4,42.4,30.22,SW,233,3.0,5.0,93,0.00,,,0.00,meteohub,2013-10-17 05:27:00,
2013-10-17 00:32:00,44.4,42.4,30.22,WSW,238,4.0,5.0,93,0.00,,,0.00,meteohub,2013-10-17 05:32:00,
2013-10-17 00:37:00,44.8,42.8,30.22,SW,233,3.0,5.0,93,0.00,,,0.00,meteohub,2013-10-17 05:37:00,
2013-10-17 00:42:00,44.8,42.8,30.22,WSW,255,2.0,5.0,93,0.00,,,0.00,meteohub,2013-10-17 05:42:00,
2013-10-17 00:47:00,45.0,42.8,30.22,WSW,257,3.0,5.0,92,0.00,,,0.00,meteohub,2013-10-17 05:47:00,
2013-10-17 00:52:00,45.0,42.8,30.22,SW,226,4.0,6.0,92,0.00,,,0.00,meteohub,2013-10-17 05:52:00,
2013-10-17 00:57:00,45.0,42.8,30.22,SW,233,2.0,6.0,92,0.00,,,0.00,meteohub,2013-10-17 05:57:00,
2013-10-17 01:02:00,45.1,43.0,30.22,SW,224,5.0,6.0,92,0.00,,,0.00,meteohub,2013-10-17 06:02:00,
2013-10-17 01:07:00,45.1,43.0,30.22,SW,233,4.0,6.0,92,0.00,,,0.00,meteohub,2013-10-17 06:07:00,
2013-10-17 01:12:00,45.1,43.0,30.22,SW,235,4.0,6.0,92,0.00,,,0.00,meteohub,2013-10-17 06:12:00,
2013-10-17 01:17:00,45.1,43.0,30.22,SW,233,3.0,6.0,92,0.00,,,0.00,meteohub,2013-10-17 06:17:00,
2013-10-17 01:22:00,45.1,42.6,30.22,SW,231,5.0,6.0,91,0.00,,,0.00,meteohub,2013-10-17 06:22:00,
2013-10-17 01:27:00,45.0,42.4,30.21,SW,222,3.0,6.0,91,0.00,,,0.00,meteohub,2013-10-17 06:27:00,
2013-10-17 01:32:00,45.0,42.4,30.21,SW,233,0.0,6.0,91,0.00,,,0.00,meteohub,2013-10-17 06:32:00,
2013-10-17 01:37:00,45.1,42.6,30.21,SW,236,2.0,5.0,91,0.00,,,0.00,meteohub,2013-10-17 06:37:00,
2013-10-17 01:42:00,45.1,42.6,30.20,SW,225,1.0,5.0,91,0.00,,,0.00,meteohub,2013-10-17 06:42:00,
2013-10-17 01:47:00,45.0,42.4,30.20,SW,217,3.0,4.0,91,0.00,,,0.00,meteohub,2013-10-17 06:47:00,
2013-10-17 01:52:00,45.0,42.4,30.20,SW,236,3.0,5.0,91,0.00,,,0.00,meteohub,2013-10-17 06:52:00,
2013-10-17 01:57:00,45.0,42.4,30.20,WSW,243,1.0,5.0,91,0.00,,,0.00,meteohub,2013-10-17 06:57:00,
2013-10-17 02:02:00,44.8,42.3,30.20,SW,233,1.0,5.0,91,0.00,,,0.00,meteohub,2013-10-17 07:02:00,
2013-10-17 02:07:00,44.8,42.3,30.20,SW,225,2.0,3.0,91,0.00,,,0.00,meteohub,2013-10-17 07:07:00,
2013-10-17 02:12:00,44.6,42.1,30.20,SW,226,2.0,2.0,91,0.00,,,0.00,meteohub,2013-10-17 07:12:00,
2013-10-17 02:17:00,44.6,42.1,30.20,SW,227,3.0,3.0,91,0.00,,,0.00,meteohub,2013-10-17 07:17:00,
2013-10-17 02:22:00,44.4,41.9,30.20,SW,226,2.0,3.0,91,0.00,,,0.00,meteohub,2013-10-17 07:22:00,
2013-10-17 02:27:00,44.4,41.9,30.20,SW,228,0.0,3.0,91,0.00,,,0.00,meteohub,2013-10-17 07:27:00,
2013-10-17 02:32:00,44.2,42.1,30.20,SW,233,1.0,3.0,92,0.00,,,0.00,meteohub,2013-10-17 07:32:00,
2013-10-17 02:37:00,44.2,42.1,30.20,WSW,239,0.0,3.0,92,0.00,,,0.00,meteohub,2013-10-17 07:37:00,
2013-10-17 02:41:00,44.1,41.9,30.20,SW,224,0.0,2.0,92,0.00,,,0.00,meteohub,2013-10-17 07:41:00,
2013-10-17 02:47:00,44.1,41.9,30.20,SW,232,2.0,2.0,92,0.00,,,0.00,meteohub,2013-10-17 07:47:00,
2013-10-17 02:52:00,44.1,41.9,30.21,WSW,242,3.0,4.0,92,0.00,,,0.00,meteohub,2013-10-17 07:52:00,
2013-10-17 02:57:00,43.9,41.7,30.21,WSW,241,2.0,4.0,92,0.00,,,0.00,meteohub,2013-10-17 07:57:00,
2013-10-17 03:02:00,43.7,41.7,30.21,WSW,238,3.0,5.0,93,0.00,,,0.00,meteohub,2013-10-17 08:02:00,
2013-10-17 03:07:00,43.7,41.7,30.21,SW,228,4.0,5.0,93,0.00,,,0.00,meteohub,2013-10-17 08:07:00,
2013-10-17 03:08:00,43.7,41.7,30.21,SW,233,4.0,5.0,93,0.00,,,0.00,meteohub,2013-10-17 08:08:00,
2013-10-17 03:13:00,43.7,41.7,30.21,SW,233,4.0,5.0,93,0.00,,,0.00,meteohub,2013-10-17 08:13:00,
2013-10-17 03:18:00,43.7,41.7,30.21,WSW,248,5.0,6.0,93,0.00,,,0.00,meteohub,2013-10-17 08:18:00,
2013-10-17 03:23:00,43.5,41.7,30.21,SW,231,3.0,6.0,93,0.00,,,0.00,meteohub,2013-10-17 08:23:00,
2013-10-17 03:28:00,43.5,41.9,30.21,SW,224,1.0,6.0,94,0.00,,,0.00,meteohub,2013-10-17 08:28:00,
2013-10-17 03:33:00,43.3,41.7,30.21,SW,231,4.0,6.0,94,0.00,,,0.00,meteohub,2013-10-17 08:33:00,
2013-10-17 03:38:00,43.3,41.7,30.20,WSW,238,3.0,7.0,94,0.00,,,0.00,meteohub,2013-10-17 08:38:00,
2013-10-17 03:44:00,43.2,41.5,30.20,SW,225,3.0,7.0,94,0.00,,,0.00,meteohub,2013-10-17 08:44:00,
2013-10-17 03:49:00,43.2,41.5,30.20,SW,236,4.0,5.0,94,0.00,,,0.00,meteohub,2013-10-17 08:49:00,
2013-10-17 03:54:00,43.0,41.4,30.20,WSW,240,2.0,5.0,94,0.00,,,0.00,meteohub,2013-10-17 08:54:00,
2013-10-17 03:59:00,42.6,41.0,30.20,SW,236,2.0,4.0,94,0.00,,,0.00,meteohub,2013-10-17 08:59:00,
2013-10-17 04:04:00,42.4,41.2,30.20,SW,221,2.0,4.0,95,0.00,,,0.00,meteohub,2013-10-17 09:04:00,
2013-10-17 04:09:00,42.3,41.0,30.19,WSW,240,4.0,4.0,95,0.00,,,0.00,meteohub,2013-10-17 09:09:00,
2013-10-17 04:14:00,42.3,41.0,30.20,WSW,243,3.0,4.0,95,0.00,,,0.00,meteohub,2013-10-17 09:14:00,
2013-10-17 04:19:00,42.3,41.0,30.19,SW,228,2.0,6.0,95,0.00,,,0.00,meteohub,2013-10-17 09:19:00,
2013-10-17 04:24:00,42.4,41.4,30.19,SW,233,3.0,6.0,96,0.00,,,0.00,meteohub,2013-10-17 09:24:00,
2013-10-17 04:29:00,42.4,41.4,30.19,WSW,243,2.0,6.0,96,0.00,,,0.00,meteohub,2013-10-17 09:29:00,
2013-10-17 04:34:00,42.6,41.5,30.19,SW,216,1.0,4.0,96,0.00,,,0.00,meteohub,2013-10-17 09:34:00,
2013-10-17 04:39:00,42.6,41.5,30.19,SW,233,2.0,5.0,96,0.00,,,0.00,meteohub,2013-10-17 09:39:00,
2013-10-17 04:44:00,42.6,41.5,30.19,South,176,3.0,7.0,96,0.00,,,0.00,meteohub,2013-10-17 09:44:00,
2013-10-17 04:49:00,42.6,41.5,30.19,SW,225,7.0,7.0,96,0.00,,,0.00,meteohub,2013-10-17 09:49:00,
2013-10-17 04:54:00,42.6,41.4,30.19,SW,231,6.0,8.0,95,0.00,,,0.00,meteohub,2013-10-17 09:54:00,
2013-10-17 04:59:00,42.6,41.4,30.19,SW,224,5.0,8.0,95,0.00,,,0.00,meteohub,2013-10-17 09:59:00,
2013-10-17 05:04:00,42.4,41.2,30.19,SW,228,5.0,9.0,95,0.00,,,0.00,meteohub,2013-10-17 10:04:00,
2013-10-17 05:09:00,42.4,41.2,30.19,SW,214,5.0,9.0,95,0.00,,,0.00,meteohub,2013-10-17 10:09:00,
2013-10-17 05:14:00,42.3,41.0,30.19,SW,219,3.0,9.0,95,0.00,,,0.00,meteohub,2013-10-17 10:14:00,
2013-10-17 05:19:00,42.3,41.0,30.19,SW,236,4.0,8.0,95,0.00,,,0.00,meteohub,2013-10-17 10:19:00,
2013-10-17 05:24:00,42.3,41.0,30.18,SW,233,5.0,8.0,95,0.00,,,0.00,meteohub,2013-10-17 10:24:00,
2013-10-17 05:29:00,42.3,41.0,30.18,SW,226,5.0,8.0,95,0.00,,,0.00,meteohub,2013-10-17 10:29:00,
2013-10-17 05:34:00,42.1,40.8,30.19,WSW,243,5.0,7.0,95,0.00,,,0.00,meteohub,2013-10-17 10:34:00,
2013-10-17 05:39:00,42.1,40.8,30.19,SW,224,5.0,7.0,95,0.00,,,0.00,meteohub,2013-10-17 10:39:00,
2013-10-17 05:44:00,42.1,40.8,30.19,WSW,246,4.0,7.0,95,0.00,,,0.00,meteohub,2013-10-17 10:44:00,
2013-10-17 05:49:00,42.1,40.8,30.19,SW,221,2.0,7.0,95,0.00,,,0.00,meteohub,2013-10-17 10:49:00,
2013-10-17 05:54:00,41.7,40.1,30.19,SW,221,4.0,7.0,94,0.00,,,0.00,meteohub,2013-10-17 10:54:00,
2013-10-17 05:59:00,41.5,39.9,30.19,SW,233,5.0,7.0,94,0.00,,,0.00,meteohub,2013-10-17 10:59:00,
2013-10-17 06:04:00,41.4,39.7,30.19,SW,236,4.0,7.0,94,0.00,,,0.00,meteohub,2013-10-17 11:04:00,
2013-10-17 06:10:00,41.2,39.6,30.19,SW,214,4.0,7.0,94,0.00,,,0.00,meteohub,2013-10-17 11:10:00,
2013-10-17 06:15:00,41.2,39.6,30.19,WSW,240,4.0,7.0,94,0.00,,,0.00,meteohub,2013-10-17 11:15:00,
2013-10-17 06:20:00,41.2,39.9,30.19,WSW,242,2.0,6.0,95,0.00,,,0.00,meteohub,2013-10-17 11:20:00,
2013-10-17 06:25:00,41.2,39.6,30.19,WSW,249,1.0,5.0,94,0.00,,,0.00,meteohub,2013-10-17 11:25:00,
2013-10-17 06:30:00,40.8,39.2,30.19,SW,234,1.0,5.0,94,0.00,,,0.00,meteohub,2013-10-17 11:30:00,
2013-10-17 06:35:00,40.8,39.2,30.19,SW,214,1.0,4.0,94,0.00,,,0.00,meteohub,2013-10-17 11:35:00,
2013-10-17 06:40:00,40.8,39.2,30.20,SW,219,0.0,4.0,94,0.00,,,0.00,meteohub,2013-10-17 11:40:00,
2013-10-17 06:45:00,40.8,39.6,30.19,SW,233,3.0,3.0,95,0.00,,,0.00,meteohub,2013-10-17 11:45:00,
2013-10-17 06:50:00,40.8,39.6,30.20,SW,231,1.0,3.0,95,0.00,,,0.00,meteohub,2013-10-17 11:50:00,
2013-10-17 06:55:00,40.8,39.6,30.19,SW,225,0.0,4.0,95,0.00,,,0.00,meteohub,2013-10-17 11:55:00,
2013-10-17 07:00:00,40.8,39.6,30.19,SSW,211,0.0,4.0,95,0.00,,,0.00,meteohub,2013-10-17 12:00:00,
2013-10-17 07:05:00,40.6,39.4,30.19,SSW,211,0.0,3.0,95,0.00,,,0.00,meteohub,2013-10-17 12:05:00,
2013-10-17 07:10:00,40.6,39.4,30.18,ESE,122,1.0,2.0,95,0.00,,,0.00,meteohub,2013-10-17 12:10:00,
2013-10-17 07:15:00,40.6,39.4,30.19,SE,138,0.0,1.0,95,0.00,,,0.00,meteohub,2013-10-17 12:15:00,
2013-10-17 07:20:00,40.6,39.4,30.19,SE,138,0.0,3.0,95,0.00,,,0.00,meteohub,2013-10-17 12:20:00,
2013-10-17 07:25:00,40.6,39.4,30.19,SW,221,0.0,3.0,95,0.00,,,0.00,meteohub,2013-10-17 12:25:00,
2013-10-17 07:30:00,40.6,39.4,30.19,South,186,0.0,3.0,95,0.00,,,0.00,meteohub,2013-10-17 12:30:00,
2013-10-17 07:35:00,40.5,39.4,30.19,South,186,0.0,0.0,96,0.00,,,0.00,meteohub,2013-10-17 12:35:00,
2013-10-17 07:40:00,40.6,39.6,30.19,SW,219,2.0,3.0,96,0.00,,,0.00,meteohub,2013-10-17 12:40:00,
2013-10-17 07:45:00,40.8,39.7,30.19,SW,233,4.0,4.0,96,0.00,,,0.00,meteohub,2013-10-17 12:45:00,
2013-10-17 07:50:00,40.8,39.7,30.19,SW,222,2.0,5.0,96,0.00,,,0.00,meteohub,2013-10-17 12:50:00,
2013-10-17 07:55:00,40.8,39.6,30.20,SW,231,4.0,7.0,95,0.00,,,0.00,meteohub,2013-10-17 12:55:00,
2013-10-17 08:00:00,40.8,39.6,30.21,WSW,239,5.0,7.0,95,0.00,,,0.00,meteohub,2013-10-17 13:00:00,
2013-10-17 08:05:00,40.8,39.2,30.21,SSW,208,4.0,7.0,94,0.00,,,0.00,meteohub,2013-10-17 13:05:00,
2013-10-17 08:10:00,40.8,39.2,30.21,SW,228,6.0,8.0,94,0.00,,,0.00,meteohub,2013-10-17 13:10:00,
2013-10-17 08:15:00,40.8,39.2,30.21,SW,225,4.0,9.0,94,0.00,,,0.00,meteohub,2013-10-17 13:15:00,
2013-10-17 08:20:00,41.2,39.6,30.21,WSW,239,5.0,9.0,94,0.00,,,0.00,meteohub,2013-10-17 13:20:00,
2013-10-17 08:25:00,41.4,39.7,30.21,SW,221,3.0,9.0,94,0.00,,,0.00,meteohub,2013-10-17 13:25:00,
2013-10-17 08:31:00,41.5,39.9,30.21,SW,225,3.0,9.0,94,0.00,,,0.00,meteohub,2013-10-17 13:31:00,
2013-10-17 08:36:00,41.9,40.1,30.21,SW,228,4.0,7.0,93,0.00,,,0.00,meteohub,2013-10-17 13:36:00,
2013-10-17 08:41:00,42.3,40.5,30.21,SW,233,4.0,8.0,93,0.00,,,0.00,meteohub,2013-10-17 13:41:00,
2013-10-17 08:46:00,42.4,40.3,30.21,SW,231,4.0,8.0,92,0.00,,,0.00,meteohub,2013-10-17 13:46:00,
2013-10-17 08:51:00,42.6,40.5,30.21,SW,226,1.0,7.0,92,0.00,,,0.00,meteohub,2013-10-17 13:51:00,
2013-10-17 08:56:00,42.6,40.5,30.22,SW,226,5.0,6.0,92,0.00,,,0.00,meteohub,2013-10-17 13:56:00,
2013-10-17 09:01:00,43.0,40.8,30.22,SW,220,1.0,7.0,92,0.00,,,0.00,meteohub,2013-10-17 14:01:00,
2013-10-17 09:06:00,43.2,41.0,30.22,SW,225,5.0,7.0,92,0.00,,,0.00,meteohub,2013-10-17 14:06:00,
2013-10-17 09:11:00,43.5,41.0,30.22,SW,236,3.0,7.0,91,0.00,,,0.00,meteohub,2013-10-17 14:11:00,
2013-10-17 09:16:00,43.7,41.0,30.22,SW,233,3.0,7.0,90,0.00,,,0.00,meteohub,2013-10-17 14:16:00,
2013-10-17 09:21:00,43.9,41.4,30.22,WSW,246,5.0,7.0,91,0.00,,,0.00,meteohub,2013-10-17 14:21:00,
2013-10-17 09:26:00,44.1,41.4,30.22,SW,228,6.0,7.0,90,0.00,,,0.00,meteohub,2013-10-17 14:26:00,
2013-10-17 09:31:00,44.2,41.5,30.22,SW,225,5.0,8.0,90,0.00,,,0.00,meteohub,2013-10-17 14:31:00,
2013-10-17 09:36:00,44.8,42.3,30.22,SW,236,5.0,10.0,91,0.00,,,0.00,meteohub,2013-10-17 14:36:00,
2013-10-17 09:41:00,45.0,41.9,30.22,WSW,243,8.0,10.0,89,0.00,,,0.00,meteohub,2013-10-17 14:41:00,
2013-10-17 09:46:00,45.1,42.1,30.22,SW,231,4.0,10.0,89,0.00,,,0.00,meteohub,2013-10-17 14:46:00,
2013-10-17 09:51:00,45.9,42.8,30.22,SW,228,2.0,10.0,89,0.00,,,0.00,meteohub,2013-10-17 14:51:00,
2013-10-17 09:56:00,46.2,42.8,30.22,West,259,5.0,9.0,88,0.00,,,0.00,meteohub,2013-10-17 14:56:00,
2013-10-17 10:01:00,46.9,43.3,30.22,WSW,242,7.0,8.0,87,0.00,,,0.00,meteohub,2013-10-17 15:01:00,
2013-10-17 10:06:00,47.5,43.2,30.22,SW,233,6.0,10.0,85,0.00,,,0.00,meteohub,2013-10-17 15:06:00,
2013-10-17 10:11:00,48.0,43.2,30.22,WSW,250,6.0,10.0,83,0.00,,,0.00,meteohub,2013-10-17 15:11:00,
2013-10-17 10:16:00,48.4,43.2,30.22,WSW,245,5.0,10.0,82,0.00,,,0.00,meteohub,2013-10-17 15:16:00,
2013-10-17 10:21:00,48.9,43.3,30.22,WSW,242,6.0,10.0,81,0.00,,,0.00,meteohub,2013-10-17 15:21:00,
2013-10-17 10:26:00,49.3,43.0,30.22,WSW,253,11.0,11.0,79,0.00,,,0.00,meteohub,2013-10-17 15:26:00,
2013-10-17 10:31:00,49.6,43.0,30.22,WSW,243,8.0,14.0,78,0.00,,,0.00,meteohub,2013-10-17 15:31:00,
2013-10-17 10:36:00,50.2,43.0,30.22,West,263,8.0,14.0,76,0.00,,,0.00,meteohub,2013-10-17 15:36:00,
2013-10-17 10:41:00,50.5,43.3,30.22,West,259,5.0,14.0,76,0.00,,,0.00,meteohub,2013-10-17 15:41:00,
2013-10-17 10:46:00,51.1,43.5,30.22,West,263,10.0,13.0,75,0.00,,,0.00,meteohub,2013-10-17 15:46:00,
2013-10-17 10:51:00,51.1,43.5,30.22,West,273,10.0,13.0,75,0.00,,,0.00,meteohub,2013-10-17 15:51:00,
2013-10-17 10:56:00,51.6,43.9,30.22,WSW,240,2.0,13.0,75,0.00,,,0.00,meteohub,2013-10-17 15:56:00,
2013-10-17 11:01:00,52.2,43.7,30.21,WSW,256,4.0,11.0,73,0.00,,,0.00,meteohub,2013-10-17 16:01:00,
2013-10-17 11:06:00,52.5,43.7,30.22,SW,226,11.0,12.0,72,0.00,,,0.00,meteohub,2013-10-17 16:06:00,
2013-10-17 11:11:00,53.1,43.9,30.21,SW,228,6.0,12.0,71,0.00,,,0.00,meteohub,2013-10-17 16:11:00,
2013-10-17 11:16:00,53.2,44.1,30.22,WSW,239,5.0,12.0,71,0.00,,,0.00,meteohub,2013-10-17 16:16:00,
2013-10-17 11:21:00,53.8,44.6,30.21,SW,236,4.0,12.0,71,0.00,,,0.00,meteohub,2013-10-17 16:21:00,
2013-10-17 11:26:00,54.1,44.6,30.21,WSW,257,6.0,12.0,70,0.00,,,0.00,meteohub,2013-10-17 16:26:00,
2013-10-17 11:31:00,54.7,44.8,30.21,WSW,243,5.0,11.0,69,0.00,,,0.00,meteohub,2013-10-17 16:31:00,
2013-10-17 11:36:00,55.4,44.2,30.21,WSW,253,4.0,9.0,66,0.00,,,0.00,meteohub,2013-10-17 16:36:00,
2013-10-17 11:41:00,55.8,44.2,30.21,SW,236,8.0,11.0,65,0.00,,,0.00,meteohub,2013-10-17 16:41:00,
2013-10-17 11:46:00,55.8,44.6,30.20,SW,228,11.0,12.0,66,0.00,,,0.00,meteohub,2013-10-17 16:46:00,
2013-10-17 11:51:00,56.5,44.4,30.20,SW,219,9.0,12.0,64,0.00,,,0.00,meteohub,2013-10-17 16:51:00,
2013-10-17 11:56:00,56.7,44.2,30.20,WSW,240,7.0,16.0,63,0.00,,,0.00,meteohub,2013-10-17 16:56:00,
2013-10-17 12:01:00,57.0,44.6,30.20,West,267,9.0,16.0,63,0.00,,,0.00,meteohub,2013-10-17 17:01:00,
2013-10-17 12:06:00,57.4,44.4,30.19,SW,222,7.0,16.0,62,0.00,,,0.00,meteohub,2013-10-17 17:06:00,
2013-10-17 12:11:00,57.6,44.6,30.19,WSW,257,3.0,15.0,62,0.00,,,0.00,meteohub,2013-10-17 17:11:00,
2013-10-17 12:16:00,57.9,44.6,30.19,WSW,253,9.0,12.0,61,0.00,,,0.00,meteohub,2013-10-17 17:16:00,
2013-10-17 12:21:00,58.8,45.0,30.19,WSW,252,11.0,11.0,60,0.00,,,0.00,meteohub,2013-10-17 17:21:00,
2013-10-17 12:26:00,58.6,44.8,30.19,SW,214,8.0,11.0,60,0.00,,,0.00,meteohub,2013-10-17 17:26:00,
2013-10-17 12:31:00,58.6,44.8,30.19,West,259,10.0,14.0,60,0.00,,,0.00,meteohub,2013-10-17 17:31:00,
2013-10-17 12:37:00,59.2,44.8,30.19,WSW,250,9.0,14.0,59,0.00,,,0.00,meteohub,2013-10-17 17:37:00,
2013-10-17 12:42:00,59.0,45.1,30.19,West,280,9.0,14.0,60,0.00,,,0.00,meteohub,2013-10-17 17:42:00,
2013-10-17 12:47:00,59.4,45.0,30.18,SW,229,12.0,14.0,59,0.00,,,0.00,meteohub,2013-10-17 17:47:00,
2013-10-17 12:52:00,59.7,45.0,30.18,WSW,255,4.0,12.0,58,0.00,,,0.00,meteohub,2013-10-17 17:52:00,
2013-10-17 12:57:00,60.4,45.1,30.18,SW,233,4.0,12.0,57,0.00,,,0.00,meteohub,2013-10-17 17:57:00,
2013-10-17 13:02:00,60.4,43.7,30.18,WSW,245,11.0,12.0,54,0.00,,,0.00,meteohub,2013-10-17 18:02:00,
2013-10-17 13:07:00,60.6,44.4,30.17,SW,224,4.0,12.0,55,0.00,,,0.00,meteohub,2013-10-17 18:07:00,
2013-10-17 13:12:00,61.3,44.1,30.17,WSW,239,5.0,12.0,53,0.00,,,0.00,meteohub,2013-10-17 18:12:00,
2013-10-17 13:17:00,61.3,43.5,30.17,SW,228,3.0,12.0,52,0.00,,,0.00,meteohub,2013-10-17 18:17:00,
2013-10-17 13:22:00,61.5,43.7,30.17,SW,222,4.0,10.0,52,0.00,,,0.00,meteohub,2013-10-17 18:22:00,
2013-10-17 13:27:00,61.9,42.4,30.17,WSW,252,8.0,12.0,49,0.00,,,0.00,meteohub,2013-10-17 18:27:00,
2013-10-17 13:32:00,62.1,43.2,30.17,WSW,255,13.0,13.0,50,0.00,,,0.00,meteohub,2013-10-17 18:32:00,
2013-10-17 13:37:00,62.2,41.7,30.16,West,274,3.0,15.0,47,0.00,,,0.00,meteohub,2013-10-17 18:37:00,
2013-10-17 13:42:00,62.2,42.8,30.16,SW,236,5.0,15.0,49,0.00,,,0.00,meteohub,2013-10-17 18:42:00,
2013-10-17 13:47:00,62.8,41.7,30.15,WNW,302,7.0,14.0,46,0.00,,,0.00,meteohub,2013-10-17 18:47:00,
2013-10-17 13:52:00,62.8,38.7,30.16,WNW,287,11.0,14.0,41,0.00,,,0.00,meteohub,2013-10-17 18:52:00,
2013-10-17 13:57:00,62.4,39.0,30.15,WNW,294,6.0,14.0,42,0.00,,,0.00,meteohub,2013-10-17 18:57:00,
2013-10-17 14:02:00,63.0,39.6,30.15,WSW,255,5.0,14.0,42,0.00,,,0.00,meteohub,2013-10-17 19:02:00,
2013-10-17 14:07:00,63.3,38.7,30.15,West,273,12.0,14.0,40,0.00,,,0.00,meteohub,2013-10-17 19:07:00,
2013-10-17 14:12:00,63.5,39.9,30.15,West,270,5.0,13.0,42,0.00,,,0.00,meteohub,2013-10-17 19:12:00,
2013-10-17 14:17:00,63.7,40.1,30.15,WSW,248,8.0,13.0,42,0.00,,,0.00,meteohub,2013-10-17 19:17:00,
2013-10-17 14:22:00,63.9,40.3,30.14,West,259,15.0,15.0,42,0.00,,,0.00,meteohub,2013-10-17 19:22:00,
2013-10-17 14:27:00,64.0,39.2,30.14,West,264,7.0,16.0,40,0.00,,,0.00,meteohub,2013-10-17 19:27:00,
2013-10-17 14:31:00,64.0,38.7,30.14,WNW,285,9.0,16.0,39,0.00,,,0.00,meteohub,2013-10-17 19:31:00,
2013-10-17 14:36:00,64.6,39.7,30.14,WSW,255,7.0,15.0,40,0.00,,,0.00,meteohub,2013-10-17 19:36:00,
2013-10-17 14:41:00,64.6,37.0,30.14,WSW,250,11.0,14.0,36,0.00,,,0.00,meteohub,2013-10-17 19:41:00,
2013-10-17 14:46:00,64.6,36.3,30.13,WNW,290,13.0,15.0,35,0.00,,,0.00,meteohub,2013-10-17 19:46:00,
2013-10-17 14:51:00,64.2,36.7,30.14,WNW,287,8.0,16.0,36,0.00,,,0.00,meteohub,2013-10-17 19:51:00,
2013-10-17 14:56:00,64.2,37.4,30.13,WNW,290,6.0,16.0,37,0.00,,,0.00,meteohub,2013-10-17 19:56:00,
2013-10-17 15:01:00,64.4,36.9,30.13,WNW,283,10.0,14.0,36,0.00,,,0.00,meteohub,2013-10-17 20:01:00,
2013-10-17 15:06:00,64.6,37.0,30.13,WNW,286,9.0,16.0,36,0.00,,,0.00,meteohub,2013-10-17 20:06:00,
2013-10-17 15:11:00,64.4,37.6,30.13,West,263,7.0,16.0,37,0.00,,,0.00,meteohub,2013-10-17 20:11:00,
2013-10-17 15:16:00,64.2,38.1,30.13,WNW,285,5.0,14.0,38,0.00,,,0.00,meteohub,2013-10-17 20:16:00,
2013-10-17 15:21:00,64.2,37.4,30.12,West,273,7.0,14.0,37,0.00,,,0.00,meteohub,2013-10-17 20:21:00,
2013-10-17 15:26:00,64.0,36.5,30.12,West,260,5.0,15.0,36,0.00,,,0.00,meteohub,2013-10-17 20:26:00,
2013-10-17 15:31:00,64.6,37.8,30.12,WSW,254,7.0,15.0,37,0.00,,,0.00,meteohub,2013-10-17 20:31:00,
2013-10-17 15:36:00,64.8,36.5,30.12,West,273,9.0,12.0,35,0.00,,,0.00,meteohub,2013-10-17 20:36:00,
2013-10-17 15:41:00,64.9,36.7,30.12,West,278,5.0,12.0,35,0.00,,,0.00,meteohub,2013-10-17 20:41:00,
2013-10-17 15:46:00,65.3,36.9,30.12,West,271,4.0,12.0,35,0.00,,,0.00,meteohub,2013-10-17 20:46:00,
2013-10-17 15:51:00,65.7,37.2,30.12,West,262,7.0,12.0,35,0.00,,,0.00,meteohub,2013-10-17 20:51:00,
2013-10-17 15:56:00,66.2,35.4,30.12,West,271,12.0,13.0,32,0.00,,,0.00,meteohub,2013-10-17 20:56:00,
2013-10-17 16:01:00,66.0,34.5,30.11,West,266,7.0,14.0,31,0.00,,,0.00,meteohub,2013-10-17 21:01:00,
2013-10-17 16:06:00,66.6,35.1,30.11,NW,326,8.0,14.0,31,0.00,,,0.00,meteohub,2013-10-17 21:06:00,
2013-10-17 16:11:00,66.6,33.3,30.11,West,264,6.0,14.0,29,0.00,,,0.00,meteohub,2013-10-17 21:11:00,
2013-10-17 16:16:00,66.4,33.1,30.11,WNW,301,7.0,12.0,29,0.00,,,0.00,meteohub,2013-10-17 21:16:00,
2013-10-17 16:21:00,66.2,33.8,30.11,West,277,9.0,12.0,30,0.00,,,0.00,meteohub,2013-10-17 21:21:00,
2013-10-17 16:26:00,66.7,32.5,30.11,NW,304,14.0,14.0,28,0.00,,,0.00,meteohub,2013-10-17 21:26:00,
2013-10-17 16:31:00,66.6,31.5,30.11,WNW,297,6.0,15.0,27,0.00,,,0.00,meteohub,2013-10-17 21:31:00,
2013-10-17 16:36:00,66.6,31.5,30.11,WNW,295,6.0,15.0,27,0.00,,,0.00,meteohub,2013-10-17 21:36:00,
2013-10-17 16:41:00,66.6,32.4,30.11,NW,307,13.0,15.0,28,0.00,,,0.00,meteohub,2013-10-17 21:41:00,
2013-10-17 16:46:00,66.2,32.2,30.12,NW,315,10.0,17.0,28,0.00,,,0.00,meteohub,2013-10-17 21:46:00,
2013-10-17 16:51:00,65.8,31.8,30.12,NNW,332,3.0,17.0,28,0.00,,,0.00,meteohub,2013-10-17 21:51:00,
2013-10-17 16:56:00,65.8,31.8,30.12,NW,321,8.0,17.0,28,0.00,,,0.00,meteohub,2013-10-17 21:56:00,
2013-10-17 17:01:00,65.7,31.6,30.12,NW,306,5.0,16.0,28,0.00,,,0.00,meteohub,2013-10-17 22:01:00,
2013-10-17 17:06:00,65.1,31.3,30.12,NW,307,11.0,17.0,28,0.00,,,0.00,meteohub,2013-10-17 22:06:00,
2013-10-17 17:11:00,64.9,31.1,30.12,WNW,297,6.0,17.0,28,0.00,,,0.00,meteohub,2013-10-17 22:11:00,
2013-10-17 17:17:00,64.9,31.1,30.12,WNW,301,10.0,17.0,28,0.00,,,0.00,meteohub,2013-10-17 22:17:00,
2013-10-17 17:22:00,64.8,30.0,30.12,NW,318,9.0,18.0,27,0.00,,,0.00,meteohub,2013-10-17 22:22:00,
2013-10-17 17:27:00,64.6,28.9,30.12,WNW,285,6.0,18.0,26,0.00,,,0.00,meteohub,2013-10-17 22:27:00,
2013-10-17 17:32:00,64.4,29.7,30.12,WNW,295,4.0,18.0,27,0.00,,,0.00,meteohub,2013-10-17 22:32:00,
2013-10-17 17:37:00,64.6,29.8,30.12,WNW,300,4.0,14.0,27,0.00,,,0.00,meteohub,2013-10-17 22:37:00,
2013-10-17 17:42:00,64.6,29.8,30.12,NW,304,5.0,13.0,27,0.00,,,0.00,meteohub,2013-10-17 22:42:00,
2013-10-17 17:47:00,64.2,29.5,30.12,North,349,7.0,13.0,27,0.00,,,0.00,meteohub,2013-10-17 22:47:00,
2013-10-17 17:52:00,64.2,29.5,30.12,WNW,295,5.0,13.0,27,0.00,,,0.00,meteohub,2013-10-17 22:52:00,
2013-10-17 17:57:00,64.0,29.3,30.13,NW,304,7.0,13.0,27,0.00,,,0.00,meteohub,2013-10-17 22:57:00,
2013-10-17 18:02:00,63.9,30.2,30.13,North,351,7.0,12.0,28,0.00,,,0.00,meteohub,2013-10-17 23:02:00,
2013-10-17 18:07:00,63.7,30.0,30.13,North,355,8.0,12.0,28,0.00,,,0.00,meteohub,2013-10-17 23:07:00,
2013-10-17 18:12:00,63.5,29.8,30.13,NNW,346,7.0,13.0,28,0.00,,,0.00,meteohub,2013-10-17 23:12:00,
2013-10-17 18:17:00,63.3,30.6,30.13,NNW,347,5.0,13.0,29,0.00,,,0.00,meteohub,2013-10-17 23:17:00,
2013-10-17 18:22:00,63.1,31.3,30.13,NW,318,4.0,13.0,30,0.00,,,0.00,meteohub,2013-10-17 23:22:00,
2013-10-17 18:27:00,63.0,31.8,30.13,NNW,338,3.0,9.0,31,0.00,,,0.00,meteohub,2013-10-17 23:27:00,
2013-10-17 18:32:00,62.8,32.5,30.13,NW,307,4.0,9.0,32,0.00,,,0.00,meteohub,2013-10-17 23:32:00,
2013-10-17 18:37:00,62.4,32.9,30.13,NNE,15,3.0,9.0,33,0.00,,,0.00,meteohub,2013-10-17 23:37:00,
2013-10-17 18:42:00,62.2,33.4,30.13,NW,318,4.0,9.0,34,0.00,,,0.00,meteohub,2013-10-17 23:42:00,
2013-10-17 18:47:00,61.9,34.0,30.14,NW,309,2.0,7.0,35,0.00,,,0.00,meteohub,2013-10-17 23:47:00,
2013-10-17 18:52:00,61.3,34.2,30.14,NW,322,3.0,5.0,36,0.00,,,0.00,meteohub,2013-10-17 23:52:00,
2013-10-17 18:57:00,61.0,34.5,30.14,NW,307,3.0,5.0,37,0.00,,,0.00,meteohub,2013-10-17 23:57:00,
2013-10-17 19:02:00,60.6,34.9,30.14,NW,306,3.0,4.0,38,0.00,,,0.00,meteohub,2013-10-18 00:02:00,
2013-10-17 19:07:00,60.4,34.7,30.14,NW,311,3.0,4.0,38,0.00,,,0.00,meteohub,2013-10-18 00:07:00,
2013-10-17 19:12:00,60.1,35.1,30.14,NW,315,1.0,4.0,39,0.00,,,0.00,meteohub,2013-10-18 00:12:00,
2013-10-17 19:17:00,60.1,35.6,30.14,NW,325,1.0,4.0,40,0.00,,,0.00,meteohub,2013-10-18 00:17:00,
2013-10-17 19:22:00,59.5,35.8,30.15,WNW,297,2.0,4.0,41,0.00,,,0.00,meteohub,2013-10-18 00:22:00,
2013-10-17 19:27:00,59.4,35.6,30.15,NW,304,2.0,3.0,41,0.00,,,0.00,meteohub,2013-10-18 00:27:00,
2013-10-17 19:32:00,58.8,35.8,30.15,WNW,295,3.0,3.0,42,0.00,,,0.00,meteohub,2013-10-18 00:32:00,
2013-10-17 19:37:00,58.6,36.1,30.15,NW,304,2.0,4.0,43,0.00,,,0.00,meteohub,2013-10-18 00:37:00,
2013-10-17 19:42:00,58.6,36.1,30.15,NW,304,2.0,4.0,43,0.00,,,0.00,meteohub,2013-10-18 00:42:00,
2013-10-17 19:47:00,58.6,35.6,30.15,NW,307,2.0,4.0,42,0.00,,,0.00,meteohub,2013-10-18 00:47:00,
2013-10-17 19:52:00,58.6,35.6,30.16,NW,318,2.0,3.0,42,0.00,,,0.00,meteohub,2013-10-18 00:52:00,
2013-10-17 19:56:00,58.6,35.6,30.16,NW,316,2.0,3.0,42,0.00,,,0.00,meteohub,2013-10-18 00:56:00,
2013-10-17 20:02:00,58.3,36.0,30.17,WNW,298,3.0,3.0,43,0.00,,,0.00,meteohub,2013-10-18 01:02:00,
2013-10-17 20:07:00,57.6,36.3,30.16,NW,304,3.0,3.0,45,0.00,,,0.00,meteohub,2013-10-18 01:07:00,
2013-10-17 20:12:00,57.2,36.7,30.16,NW,307,3.0,3.0,46,0.00,,,0.00,meteohub,2013-10-18 01:12:00,
2013-10-17 20:17:00,56.8,36.3,30.17,NW,314,2.0,3.0,46,0.00,,,0.00,meteohub,2013-10-18 01:17:00,
2013-10-17 20:22:00,56.8,36.3,30.17,NW,318,2.0,3.0,46,0.00,,,0.00,meteohub,2013-10-18 01:22:00,
2013-10-17 20:27:00,56.7,36.7,30.17,NW,319,2.0,3.0,47,0.00,,,0.00,meteohub,2013-10-18 01:27:00,
2013-10-17 20:32:00,56.5,37.0,30.17,NW,307,2.0,3.0,48,0.00,,,0.00,meteohub,2013-10-18 01:32:00,
2013-10-17 20:37:00,56.1,37.2,30.17,NW,307,2.0,3.0,49,0.00,,,0.00,meteohub,2013-10-18 01:37:00,
2013-10-17 20:42:00,55.9,37.0,30.17,NW,304,4.0,4.0,49,0.00,,,0.00,meteohub,2013-10-18 01:42:00,
2013-10-17 20:47:00,55.8,37.4,30.18,NW,307,3.0,5.0,50,0.00,,,0.00,meteohub,2013-10-18 01:47:00,
2013-10-17 20:52:00,55.6,37.2,30.18,NW,309,3.0,5.0,50,0.00,,,0.00,meteohub,2013-10-18 01:52:00,
2013-10-17 20:57:00,55.2,37.4,30.18,NW,304,4.0,5.0,51,0.00,,,0.00,meteohub,2013-10-18 01:57:00,
2013-10-17 21:02:00,55.2,37.4,30.18,NW,307,4.0,4.0,51,0.00,,,0.00,meteohub,2013-10-18 02:02:00,
2013-10-17 21:07:00,55.0,37.2,30.18,NW,319,4.0,4.0,51,0.00,,,0.00,meteohub,2013-10-18 02:07:00,
2013-10-17 21:12:00,54.9,37.6,30.18,NW,315,4.0,5.0,52,0.00,,,0.00,meteohub,2013-10-18 02:12:00,
2013-10-17 21:17:00,54.7,37.9,30.18,NW,323,6.0,6.0,53,0.00,,,0.00,meteohub,2013-10-18 02:17:00,
2013-10-17 21:22:00,54.5,37.8,30.18,NW,326,3.0,7.0,53,0.00,,,0.00,meteohub,2013-10-18 02:22:00,
2013-10-17 21:27:00,54.5,38.1,30.18,NW,321,4.0,7.0,54,0.00,,,0.00,meteohub,2013-10-18 02:27:00,
2013-10-17 21:32:00,54.3,38.5,30.19,NW,309,5.0,7.0,55,0.00,,,0.00,meteohub,2013-10-18 02:32:00,
2013-10-17 21:37:00,54.1,38.3,30.19,NNW,338,4.0,7.0,55,0.00,,,0.00,meteohub,2013-10-18 02:37:00,
2013-10-17 21:42:00,54.0,38.7,30.19,NW,314,6.0,7.0,56,0.00,,,0.00,meteohub,2013-10-18 02:42:00,
2013-10-17 21:47:00,53.8,38.8,30.19,NW,309,3.0,7.0,57,0.00,,,0.00,meteohub,2013-10-18 02:47:00,
2013-10-17 21:52:00,53.6,38.7,30.19,NNW,334,4.0,6.0,57,0.00,,,0.00,meteohub,2013-10-18 02:52:00,
2013-10-17 21:57:00,53.6,38.7,30.19,North,350,4.0,6.0,57,0.00,,,0.00,meteohub,2013-10-18 02:57:00,
2013-10-17 22:02:00,53.4,39.0,30.19,North,350,7.0,8.0,58,0.00,,,0.00,meteohub,2013-10-18 03:02:00,
2013-10-17 22:07:00,53.4,39.0,30.20,NNE,32,5.0,8.0,58,0.00,,,0.00,meteohub,2013-10-18 03:07:00,
2013-10-17 22:12:00,54.0,39.6,30.20,NNW,329,14.0,19.0,58,0.00,,,0.00,meteohub,2013-10-18 03:12:00,
2013-10-17 22:17:00,54.1,39.7,30.20,NNE,13,13.0,21.0,58,0.00,,,0.00,meteohub,2013-10-18 03:17:00,
2013-10-17 22:22:00,54.0,39.6,30.21,NE,38,14.0,21.0,58,0.00,,,0.00,meteohub,2013-10-18 03:22:00,
2013-10-17 22:27:00,53.6,40.1,30.20,North,5,15.0,21.0,60,0.00,,,0.00,meteohub,2013-10-18 03:27:00,
2013-10-17 22:32:00,53.2,40.1,30.21,NNE,22,11.0,22.0,61,0.00,,,0.00,meteohub,2013-10-18 03:32:00,
2013-10-17 22:37:00,52.9,40.3,30.21,NNE,19,11.0,22.0,62,0.00,,,0.00,meteohub,2013-10-18 03:37:00,
2013-10-17 22:42:00,52.5,40.3,30.22,NNE,15,9.0,22.0,63,0.00,,,0.00,meteohub,2013-10-18 03:42:00,
2013-10-17 22:47:00,52.3,40.5,30.22,North,8,12.0,17.0,64,0.00,,,0.00,meteohub,2013-10-18 03:47:00,
2013-10-17 22:52:00,52.2,40.8,30.22,NNE,22,11.0,16.0,65,0.00,,,0.00,meteohub,2013-10-18 03:52:00,
2013-10-17 22:57:00,51.8,40.5,30.22,NNW,337,10.0,16.0,65,0.00,,,0.00,meteohub,2013-10-18 03:57:00,
2013-10-17 23:01:00,51.6,41.0,30.22,North,11,9.0,16.0,67,0.00,,,0.00,meteohub,2013-10-18 04:01:00,
2013-10-17 23:04:00,51.3,40.6,30.22,NNE,15,7.0,16.0,67,0.00,,,0.00,meteohub,2013-10-18 04:04:00,
2013-10-17 23:09:00,51.1,40.5,30.22,NE,34,7.0,14.0,67,0.00,,,0.00,meteohub,2013-10-18 04:09:00,
2013-10-17 23:14:00,50.7,40.5,30.22,NNW,334,8.0,15.0,68,0.00,,,0.00,meteohub,2013-10-18 04:14:00,
2013-10-17 23:19:00,50.5,40.5,30.23,NNW,341,9.0,15.0,68,0.00,,,0.00,meteohub,2013-10-18 04:19:00,
2013-10-17 23:24:00,50.5,40.8,30.23,NNE,20,6.0,15.0,69,0.00,,,0.00,meteohub,2013-10-18 04:24:00,
2013-10-17 23:29:00,50.4,40.6,30.23,North,1,8.0,14.0,69,0.00,,,0.00,meteohub,2013-10-18 04:29:00,
2013-10-17 23:34:00,50.2,40.5,30.23,NNW,335,8.0,14.0,69,0.00,,,0.00,meteohub,2013-10-18 04:34:00,
2013-10-17 23:39:00,50.0,40.3,30.23,North,350,9.0,14.0,69,0.00,,,0.00,meteohub,2013-10-18 04:39:00,
2013-10-17 23:44:00,49.8,40.1,30.23,NNE,22,11.0,14.0,69,0.00,,,0.00,meteohub,2013-10-18 04:44:00,
2013-10-17 23:49:00,49.6,39.9,30.23,NNE,25,12.0,15.0,69,0.00,,,0.00,meteohub,2013-10-18 04:49:00,
2013-10-17 23:54:00,49.6,39.6,30.23,North,354,11.0,16.0,68,0.00,,,0.00,meteohub,2013-10-18 04:54:00,
2013-10-17 23:59:00,49.6,39.6,30.23,NE,49,7.0,16.0,68,0.00,,,0.00,meteohub,2013-10-18 04:59:00,